sensor_id;sensor_type;location;lat;lon;timestamp;temperature;humidity
15983;DHT22;14442;50.196;8.096;2023-03-23T00:00:01;23.00;44.40
15983;DHT22;14442;50.196;8.096;2023-03-23T00:02:31;23.00;44.40
15983;DHT22;14442;50.196;8.096;2023-03-23T00:05:00;23.00;44.40
15983;DHT22;14442;50.196;8.096;2023-03-23T00:07:29;23.00;44.30
15983;DHT22;14442;50.196;8.096;2023-03-23T00:09:57;23.00;44.30
15983;DHT22;14442;50.196;8.096;2023-03-23T00:12:25;23.00;44.20
15983;DHT22;14442;50.196;8.096;2023-03-23T00:14:58;23.00;44.30
15983;DHT22;14442;50.196;8.096;2023-03-23T00:17:26;23.00;44.20
15983;DHT22;14442;50.196;8.096;2023-03-23T00:19:52;23.00;44.10
15983;DHT22;14442;50.196;8.096;2023-03-23T00:22:19;23.00;44.10
15983;DHT22;14442;50.196;8.096;2023-03-23T00:24:51;23.00;44.10
15983;DHT22;14442;50.196;8.096;2023-03-23T00:27:19;23.10;44.10
15983;DHT22;14442;50.196;8.096;2023-03-23T00:29:47;23.10;44.00
15983;DHT22;14442;50.196;8.096;2023-03-23T00:32:18;23.10;43.90
15983;DHT22;14442;50.196;8.096;2023-03-23T00:34:46;23.10;43.80
15983;DHT22;14442;50.196;8.096;2023-03-23T00:37:14;23.20;43.80
15983;DHT22;14442;50.196;8.096;2023-03-23T00:39:43;23.20;43.80
15983;DHT22;14442;50.196;8.096;2023-03-23T00:42:13;23.30;43.70
15983;DHT22;14442;50.196;8.096;2023-03-23T00:44:41;23.30;43.70
15983;DHT22;14442;50.196;8.096;2023-03-23T00:47:09;23.30;43.70
15983;DHT22;14442;50.196;8.096;2023-03-23T00:49:36;23.30;43.50
15983;DHT22;14442;50.196;8.096;2023-03-23T00:52:05;23.40;43.60
15983;DHT22;14442;50.196;8.096;2023-03-23T00:54:32;23.40;43.40
15983;DHT22;14442;50.196;8.096;2023-03-23T00:56:59;23.40;43.40
15983;DHT22;14442;50.196;8.096;2023-03-23T00:59:26;23.40;43.40
15983;DHT22;14442;50.196;8.096;2023-03-23T01:01:54;23.40;43.30
15983;DHT22;14442;50.196;8.096;2023-03-23T01:04:21;23.50;43.40
15983;DHT22;14442;50.196;8.096;2023-03-23T01:06:49;23.50;43.30
15983;DHT22;14442;50.196;8.096;2023-03-23T01:09:18;23.50;43.30
15983;DHT22;14442;50.196;8.096;2023-03-23T01:11:47;23.60;43.30
15983;DHT22;14442;50.196;8.096;2023-03-23T01:14:16;23.60;43.30
15983;DHT22;14442;50.196;8.096;2023-03-23T01:16:44;23.60;43.30
15983;DHT22;14442;50.196;8.096;2023-03-23T01:19:12;23.60;43.30
15983;DHT22;14442;50.196;8.096;2023-03-23T01:21:39;23.60;43.30
15983;DHT22;14442;50.196;8.096;2023-03-23T01:24:06;23.60;43.30
15983;DHT22;14442;50.196;8.096;2023-03-23T01:26:33;23.60;43.30
15983;DHT22;14442;50.196;8.096;2023-03-23T01:29:00;23.60;43.30
15983;DHT22;14442;50.196;8.096;2023-03-23T01:31:27;23.60;43.20
15983;DHT22;14442;50.196;8.096;2023-03-23T01:33:54;23.60;43.30
15983;DHT22;14442;50.196;8.096;2023-03-23T01:36:25;23.60;43.30
15983;DHT22;14442;50.196;8.096;2023-03-23T01:38:54;23.60;43.40
15983;DHT22;14442;50.196;8.096;2023-03-23T01:41:23;23.60;43.30
15983;DHT22;14442;50.196;8.096;2023-03-23T01:43:55;23.60;43.30
15983;DHT22;14442;50.196;8.096;2023-03-23T01:46:23;23.60;43.30
15983;DHT22;14442;50.196;8.096;2023-03-23T01:48:50;23.60;43.30
15983;DHT22;14442;50.196;8.096;2023-03-23T01:51:19;23.60;43.30
15983;DHT22;14442;50.196;8.096;2023-03-23T01:53:51;23.60;43.20
15983;DHT22;14442;50.196;8.096;2023-03-23T01:56:21;23.60;43.30
15983;DHT22;14442;50.196;8.096;2023-03-23T01:58:51;23.70;43.40
15983;DHT22;14442;50.196;8.096;2023-03-23T02:01:19;23.70;43.30
15983;DHT22;14442;50.196;8.096;2023-03-23T02:03:52;23.70;43.30
15983;DHT22;14442;50.196;8.096;2023-03-23T02:06:19;23.70;43.30
15983;DHT22;14442;50.196;8.096;2023-03-23T02:08:49;23.70;43.30
15983;DHT22;14442;50.196;8.096;2023-03-23T02:11:18;23.70;43.20
15983;DHT22;14442;50.196;8.096;2023-03-23T02:13:46;23.70;43.90
15983;DHT22;14442;50.196;8.096;2023-03-23T02:16:18;23.60;43.20
15983;DHT22;14442;50.196;8.096;2023-03-23T02:18:55;23.60;43.20
15983;DHT22;14442;50.196;8.096;2023-03-23T02:24:35;23.60;43.20
15983;DHT22;14442;50.196;8.096;2023-03-23T02:27:06;23.70;43.30
15983;DHT22;14442;50.196;8.096;2023-03-23T02:29:46;23.70;43.30
15983;DHT22;14442;50.196;8.096;2023-03-23T02:32:43;23.60;43.20
15983;DHT22;14442;50.196;8.096;2023-03-23T02:35:23;23.70;43.30
15983;DHT22;14442;50.196;8.096;2023-03-23T02:37:52;23.60;43.30
15983;DHT22;14442;50.196;8.096;2023-03-23T02:40:23;23.60;43.20
15983;DHT22;14442;50.196;8.096;2023-03-23T02:42:54;23.70;43.30
15983;DHT22;14442;50.196;8.096;2023-03-23T02:45:24;23.60;43.20
15983;DHT22;14442;50.196;8.096;2023-03-23T02:47:53;23.60;43.20
15983;DHT22;14442;50.196;8.096;2023-03-23T02:50:23;23.60;43.20
15983;DHT22;14442;50.196;8.096;2023-03-23T02:52:52;23.60;43.90
15983;DHT22;14442;50.196;8.096;2023-03-23T02:55:21;23.60;43.30
15983;DHT22;14442;50.196;8.096;2023-03-23T02:57:51;23.60;43.20
15983;DHT22;14442;50.196;8.096;2023-03-23T03:00:18;23.60;43.30
15983;DHT22;14442;50.196;8.096;2023-03-23T03:02:47;23.60;43.30
15983;DHT22;14442;50.196;8.096;2023-03-23T03:05:24;23.60;43.30
15983;DHT22;14442;50.196;8.096;2023-03-23T03:07:59;23.60;43.30
15983;DHT22;14442;50.196;8.096;2023-03-23T03:10:31;23.60;43.30
15983;DHT22;14442;50.196;8.096;2023-03-23T03:13:03;23.60;43.40
15983;DHT22;14442;50.196;8.096;2023-03-23T03:15:34;23.60;43.40
15983;DHT22;14442;50.196;8.096;2023-03-23T03:18:09;23.60;43.40
15983;DHT22;14442;50.196;8.096;2023-03-23T03:20:43;23.50;43.30
15983;DHT22;14442;50.196;8.096;2023-03-23T03:23:13;23.60;43.40
15983;DHT22;14442;50.196;8.096;2023-03-23T03:25:42;23.50;43.40
15983;DHT22;14442;50.196;8.096;2023-03-23T03:28:14;23.50;43.40
15983;DHT22;14442;50.196;8.096;2023-03-23T03:30:42;23.50;43.40
15983;DHT22;14442;50.196;8.096;2023-03-23T03:33:10;23.50;43.40
15983;DHT22;14442;50.196;8.096;2023-03-23T03:35:41;23.50;43.40
15983;DHT22;14442;50.196;8.096;2023-03-23T03:38:09;23.50;43.50
15983;DHT22;14442;50.196;8.096;2023-03-23T03:40:36;23.50;43.50
15983;DHT22;14442;50.196;8.096;2023-03-23T03:43:04;23.50;43.60
15983;DHT22;14442;50.196;8.096;2023-03-23T03:45:32;23.50;43.50
15983;DHT22;14442;50.196;8.096;2023-03-23T03:47:59;23.40;43.50
15983;DHT22;14442;50.196;8.096;2023-03-23T03:50:27;23.40;43.50
15983;DHT22;14442;50.196;8.096;2023-03-23T03:52:55;23.40;43.50
15983;DHT22;14442;50.196;8.096;2023-03-23T03:55:22;23.40;43.50
15983;DHT22;14442;50.196;8.096;2023-03-23T03:57:49;23.40;43.50
15983;DHT22;14442;50.196;8.096;2023-03-23T04:00:16;23.40;43.50
15983;DHT22;14442;50.196;8.096;2023-03-23T04:02:45;23.40;43.60
15983;DHT22;14442;50.196;8.096;2023-03-23T04:05:17;23.40;43.50
15983;DHT22;14442;50.196;8.096;2023-03-23T04:07:45;23.40;43.60
15983;DHT22;14442;50.196;8.096;2023-03-23T04:10:19;23.40;43.50
15983;DHT22;14442;50.196;8.096;2023-03-23T04:12:47;23.40;43.60
15983;DHT22;14442;50.196;8.096;2023-03-23T04:15:14;23.40;43.60
15983;DHT22;14442;50.196;8.096;2023-03-23T04:17:41;23.30;43.50
15983;DHT22;14442;50.196;8.096;2023-03-23T04:20:08;23.30;43.60
15983;DHT22;14442;50.196;8.096;2023-03-23T04:22:41;23.30;43.60
15983;DHT22;14442;50.196;8.096;2023-03-23T04:25:09;23.30;43.60
15983;DHT22;14442;50.196;8.096;2023-03-23T04:27:39;23.30;43.60
15983;DHT22;14442;50.196;8.096;2023-03-23T04:30:09;23.30;43.70
15983;DHT22;14442;50.196;8.096;2023-03-23T04:32:37;23.30;43.60
15983;DHT22;14442;50.196;8.096;2023-03-23T04:35:08;23.30;43.70
15983;DHT22;14442;50.196;8.096;2023-03-23T04:37:36;23.20;43.60
15983;DHT22;14442;50.196;8.096;2023-03-23T04:40:05;23.20;43.60
15983;DHT22;14442;50.196;8.096;2023-03-23T04:42:35;23.20;43.60
15983;DHT22;14442;50.196;8.096;2023-03-23T04:45:05;23.20;43.70
15983;DHT22;14442;50.196;8.096;2023-03-23T04:47:34;23.20;43.70
15983;DHT22;14442;50.196;8.096;2023-03-23T04:50:07;23.20;43.70
15983;DHT22;14442;50.196;8.096;2023-03-23T04:52:34;23.20;43.70
15983;DHT22;14442;50.196;8.096;2023-03-23T04:55:04;23.20;43.70
15983;DHT22;14442;50.196;8.096;2023-03-23T04:57:30;23.10;43.70
15983;DHT22;14442;50.196;8.096;2023-03-23T04:59:57;23.10;44.20
15983;DHT22;14442;50.196;8.096;2023-03-23T05:02:25;23.10;43.70
15983;DHT22;14442;50.196;8.096;2023-03-23T05:04:55;23.10;43.70
15983;DHT22;14442;50.196;8.096;2023-03-23T05:07:22;23.10;43.70
15983;DHT22;14442;50.196;8.096;2023-03-23T05:09:49;23.10;43.60
15983;DHT22;14442;50.196;8.096;2023-03-23T05:12:16;23.10;43.70
15983;DHT22;14442;50.196;8.096;2023-03-23T05:14:43;23.10;43.70
15983;DHT22;14442;50.196;8.096;2023-03-23T05:17:09;23.10;43.70
15983;DHT22;14442;50.196;8.096;2023-03-23T05:19:39;23.10;43.70
15983;DHT22;14442;50.196;8.096;2023-03-23T05:22:08;23.10;43.70
15983;DHT22;14442;50.196;8.096;2023-03-23T05:24:38;23.10;43.70
15983;DHT22;14442;50.196;8.096;2023-03-23T05:27:05;23.10;43.70
15983;DHT22;14442;50.196;8.096;2023-03-23T05:29:33;23.10;43.70
15983;DHT22;14442;50.196;8.096;2023-03-23T05:32:01;23.10;43.70
15983;DHT22;14442;50.196;8.096;2023-03-23T05:34:29;23.10;43.70
15983;DHT22;14442;50.196;8.096;2023-03-23T05:36:59;23.10;43.70
15983;DHT22;14442;50.196;8.096;2023-03-23T05:39:26;23.10;43.70
15983;DHT22;14442;50.196;8.096;2023-03-23T05:41:52;23.10;43.70
15983;DHT22;14442;50.196;8.096;2023-03-23T05:44:19;23.10;43.70
15983;DHT22;14442;50.196;8.096;2023-03-23T05:46:47;23.10;43.70
15983;DHT22;14442;50.196;8.096;2023-03-23T05:49:14;23.10;43.80
15983;DHT22;14442;50.196;8.096;2023-03-23T05:51:41;23.00;44.30
15983;DHT22;14442;50.196;8.096;2023-03-23T05:54:09;23.00;43.80
15983;DHT22;14442;50.196;8.096;2023-03-23T05:56:36;23.00;43.80
15983;DHT22;14442;50.196;8.096;2023-03-23T05:59:03;23.00;43.80
15983;DHT22;14442;50.196;8.096;2023-03-23T06:01:30;23.00;43.90
15983;DHT22;14442;50.196;8.096;2023-03-23T06:03:58;23.00;43.90
15983;DHT22;14442;50.196;8.096;2023-03-23T06:06:25;23.00;43.90
15983;DHT22;14442;50.196;8.096;2023-03-23T06:08:52;23.00;43.90
15983;DHT22;14442;50.196;8.096;2023-03-23T06:11:20;23.00;43.80
15983;DHT22;14442;50.196;8.096;2023-03-23T06:13:47;23.00;43.80
15983;DHT22;14442;50.196;8.096;2023-03-23T06:16:14;23.00;44.50
15983;DHT22;14442;50.196;8.096;2023-03-23T06:18:41;23.00;43.80
15983;DHT22;14442;50.196;8.096;2023-03-23T06:21:08;23.00;43.80
15983;DHT22;14442;50.196;8.096;2023-03-23T06:23:35;23.00;43.80
15983;DHT22;14442;50.196;8.096;2023-03-23T06:26:04;23.00;43.80
15983;DHT22;14442;50.196;8.096;2023-03-23T06:28:33;23.00;43.80
15983;DHT22;14442;50.196;8.096;2023-03-23T06:31:00;23.00;43.70
15983;DHT22;14442;50.196;8.096;2023-03-23T06:33:29;23.00;44.50
15983;DHT22;14442;50.196;8.096;2023-03-23T06:35:57;23.00;43.80
15983;DHT22;14442;50.196;8.096;2023-03-23T06:38:24;23.00;43.80
15983;DHT22;14442;50.196;8.096;2023-03-23T06:40:52;23.00;43.80
15983;DHT22;14442;50.196;8.096;2023-03-23T06:43:18;23.00;43.80
15983;DHT22;14442;50.196;8.096;2023-03-23T06:45:46;23.00;43.80
15983;DHT22;14442;50.196;8.096;2023-03-23T06:48:13;23.00;43.80
15983;DHT22;14442;50.196;8.096;2023-03-23T06:50:42;23.00;43.70
15983;DHT22;14442;50.196;8.096;2023-03-23T06:53:10;23.00;43.70
15983;DHT22;14442;50.196;8.096;2023-03-23T06:55:37;23.00;43.80
15983;DHT22;14442;50.196;8.096;2023-03-23T06:58:04;23.00;43.70
15983;DHT22;14442;50.196;8.096;2023-03-23T07:00:31;23.00;43.80
15983;DHT22;14442;50.196;8.096;2023-03-23T07:03:00;23.00;43.80
15983;DHT22;14442;50.196;8.096;2023-03-23T07:05:26;23.10;44.00
15983;DHT22;14442;50.196;8.096;2023-03-23T07:07:53;23.10;44.20
15983;DHT22;14442;50.196;8.096;2023-03-23T07:10:20;23.10;44.50
15983;DHT22;14442;50.196;8.096;2023-03-23T07:12:47;23.10;44.60
15983;DHT22;14442;50.196;8.096;2023-03-23T07:15:13;23.10;44.70
15983;DHT22;14442;50.196;8.096;2023-03-23T07:17:40;23.10;45.00
15983;DHT22;14442;50.196;8.096;2023-03-23T07:20:10;23.10;44.80
15983;DHT22;14442;50.196;8.096;2023-03-23T07:22:37;23.20;45.00
15983;DHT22;14442;50.196;8.096;2023-03-23T07:25:04;23.20;45.00
15983;DHT22;14442;50.196;8.096;2023-03-23T07:27:31;23.20;45.10
15983;DHT22;14442;50.196;8.096;2023-03-23T07:29:57;23.20;45.10
15983;DHT22;14442;50.196;8.096;2023-03-23T07:32:24;23.20;45.10
15983;DHT22;14442;50.196;8.096;2023-03-23T07:34:51;23.20;45.00
15983;DHT22;14442;50.196;8.096;2023-03-23T07:37:19;23.30;45.20
15983;DHT22;14442;50.196;8.096;2023-03-23T07:39:46;23.30;45.20
15983;DHT22;14442;50.196;8.096;2023-03-23T07:42:13;23.30;45.00
15983;DHT22;14442;50.196;8.096;2023-03-23T07:44:39;23.30;44.80
15983;DHT22;14442;50.196;8.096;2023-03-23T07:47:06;23.20;44.70
15983;DHT22;14442;50.196;8.096;2023-03-23T07:49:33;23.30;44.70
15983;DHT22;14442;50.196;8.096;2023-03-23T07:52:00;23.30;44.80
15983;DHT22;14442;50.196;8.096;2023-03-23T07:54:29;23.30;44.90
15983;DHT22;14442;50.196;8.096;2023-03-23T07:56:56;23.30;45.00
15983;DHT22;14442;50.196;8.096;2023-03-23T07:59:23;23.30;45.20
15983;DHT22;14442;50.196;8.096;2023-03-23T08:01:50;23.30;45.40
15983;DHT22;14442;50.196;8.096;2023-03-23T08:04:16;23.30;45.50
15983;DHT22;14442;50.196;8.096;2023-03-23T08:06:43;23.30;45.60
15983;DHT22;14442;50.196;8.096;2023-03-23T08:09:10;23.30;45.60
15983;DHT22;14442;50.196;8.096;2023-03-23T08:11:39;23.40;46.40
15983;DHT22;14442;50.196;8.096;2023-03-23T08:14:06;23.40;46.30
15983;DHT22;14442;50.196;8.096;2023-03-23T08:16:33;23.40;46.70
15983;DHT22;14442;50.196;8.096;2023-03-23T08:19:01;23.30;46.50
15983;DHT22;14442;50.196;8.096;2023-03-23T08:21:27;23.20;46.30
15983;DHT22;14442;50.196;8.096;2023-03-23T08:23:55;23.10;46.00
15983;DHT22;14442;50.196;8.096;2023-03-23T08:26:21;23.10;45.90
15983;DHT22;14442;50.196;8.096;2023-03-23T08:28:49;23.10;45.90
15983;DHT22;14442;50.196;8.096;2023-03-23T08:31:16;23.10;46.20
15983;DHT22;14442;50.196;8.096;2023-03-23T08:33:43;23.10;46.80
15983;DHT22;14442;50.196;8.096;2023-03-23T08:36:10;23.10;46.50
15983;DHT22;14442;50.196;8.096;2023-03-23T08:38:37;23.20;46.30
15983;DHT22;14442;50.196;8.096;2023-03-23T08:41:05;23.30;46.60
15983;DHT22;14442;50.196;8.096;2023-03-23T08:43:34;23.40;46.70
15983;DHT22;14442;50.196;8.096;2023-03-23T08:46:03;23.40;46.60
15983;DHT22;14442;50.196;8.096;2023-03-23T08:48:34;23.40;46.90
15983;DHT22;14442;50.196;8.096;2023-03-23T08:51:02;23.40;46.90
15983;DHT22;14442;50.196;8.096;2023-03-23T08:53:29;23.40;47.50
15983;DHT22;14442;50.196;8.096;2023-03-23T08:55:56;23.40;47.10
15983;DHT22;14442;50.196;8.096;2023-03-23T08:58:28;23.40;47.20
15983;DHT22;14442;50.196;8.096;2023-03-23T09:00:55;23.40;47.30
15983;DHT22;14442;50.196;8.096;2023-03-23T09:03:23;23.40;47.40
15983;DHT22;14442;50.196;8.096;2023-03-23T09:05:50;23.50;47.50
15983;DHT22;14442;50.196;8.096;2023-03-23T09:08:16;23.40;47.40
15983;DHT22;14442;50.196;8.096;2023-03-23T09:10:43;23.50;47.50
15983;DHT22;14442;50.196;8.096;2023-03-23T09:13:10;23.40;47.50
15983;DHT22;14442;50.196;8.096;2023-03-23T09:15:37;23.50;47.50
15983;DHT22;14442;50.196;8.096;2023-03-23T09:18:04;23.40;47.50
15983;DHT22;14442;50.196;8.096;2023-03-23T09:20:32;23.40;47.70
15983;DHT22;14442;50.196;8.096;2023-03-23T09:22:59;23.40;47.60
15983;DHT22;14442;50.196;8.096;2023-03-23T09:25:26;23.40;47.50
15983;DHT22;14442;50.196;8.096;2023-03-23T09:27:55;23.40;47.60
15983;DHT22;14442;50.196;8.096;2023-03-23T09:30:24;23.40;47.60
15983;DHT22;14442;50.196;8.096;2023-03-23T09:32:51;23.40;47.50
15983;DHT22;14442;50.196;8.096;2023-03-23T09:35:19;23.40;47.60
15983;DHT22;14442;50.196;8.096;2023-03-23T09:37:49;23.40;48.00
15983;DHT22;14442;50.196;8.096;2023-03-23T09:40:19;23.40;47.80
15983;DHT22;14442;50.196;8.096;2023-03-23T09:43:13;23.40;47.80
15983;DHT22;14442;50.196;8.096;2023-03-23T09:45:51;23.40;47.80
15983;DHT22;14442;50.196;8.096;2023-03-23T09:48:40;23.40;48.20
15983;DHT22;14442;50.196;8.096;2023-03-23T09:51:22;23.40;48.20
15983;DHT22;14442;50.196;8.096;2023-03-23T09:53:55;23.30;48.00
15983;DHT22;14442;50.196;8.096;2023-03-23T09:56:24;23.40;48.10
15983;DHT22;14442;50.196;8.096;2023-03-23T09:58:56;23.30;47.90
15983;DHT22;14442;50.196;8.096;2023-03-23T10:01:27;23.30;48.00
15983;DHT22;14442;50.196;8.096;2023-03-23T10:04:01;23.30;47.80
15983;DHT22;14442;50.196;8.096;2023-03-23T10:06:29;23.30;47.70
15983;DHT22;14442;50.196;8.096;2023-03-23T10:09:00;23.30;48.50
15983;DHT22;14442;50.196;8.096;2023-03-23T10:11:37;23.30;47.90
15983;DHT22;14442;50.196;8.096;2023-03-23T10:14:14;23.30;48.00
15983;DHT22;14442;50.196;8.096;2023-03-23T10:16:51;23.30;47.90
15983;DHT22;14442;50.196;8.096;2023-03-23T10:19:26;23.30;47.90
15983;DHT22;14442;50.196;8.096;2023-03-23T10:21:59;23.30;48.00
15983;DHT22;14442;50.196;8.096;2023-03-23T10:24:33;23.30;48.00
15983;DHT22;14442;50.196;8.096;2023-03-23T10:27:06;23.30;47.90
15983;DHT22;14442;50.196;8.096;2023-03-23T10:29:36;23.30;48.10
15983;DHT22;14442;50.196;8.096;2023-03-23T10:32:10;23.30;48.00
15983;DHT22;14442;50.196;8.096;2023-03-23T10:34:42;23.30;48.00
15983;DHT22;14442;50.196;8.096;2023-03-23T10:37:13;23.30;48.00
15983;DHT22;14442;50.196;8.096;2023-03-23T10:39:47;23.30;47.90
15983;DHT22;14442;50.196;8.096;2023-03-23T10:42:22;23.40;48.00
15983;DHT22;14442;50.196;8.096;2023-03-23T10:44:49;23.30;48.00
15983;DHT22;14442;50.196;8.096;2023-03-23T10:47:16;23.40;48.00
15983;DHT22;14442;50.196;8.096;2023-03-23T10:49:47;23.40;48.70
15983;DHT22;14442;50.196;8.096;2023-03-23T10:52:25;23.40;49.00
15983;DHT22;14442;50.196;8.096;2023-03-23T10:54:57;23.50;49.40
15983;DHT22;14442;50.196;8.096;2023-03-23T10:57:26;23.50;48.70
15983;DHT22;14442;50.196;8.096;2023-03-23T11:00:03;23.50;48.50
15983;DHT22;14442;50.196;8.096;2023-03-23T11:02:36;23.50;48.40
15983;DHT22;14442;50.196;8.096;2023-03-23T11:05:09;23.50;48.40
15983;DHT22;14442;50.196;8.096;2023-03-23T11:07:39;23.50;49.20
15983;DHT22;14442;50.196;8.096;2023-03-23T11:10:17;23.50;48.50
15983;DHT22;14442;50.196;8.096;2023-03-23T11:12:46;23.50;48.50
15983;DHT22;14442;50.196;8.096;2023-03-23T11:15:34;23.50;48.80
15983;DHT22;14442;50.196;8.096;2023-03-23T11:18:05;23.40;48.70
15983;DHT22;14442;50.196;8.096;2023-03-23T11:20:35;23.40;48.70
15983;DHT22;14442;50.196;8.096;2023-03-23T11:23:10;23.30;48.60
15983;DHT22;14442;50.196;8.096;2023-03-23T11:25:54;23.30;48.50
15983;DHT22;14442;50.196;8.096;2023-03-23T11:28:26;23.10;47.80
15983;DHT22;14442;50.196;8.096;2023-03-23T11:30:54;23.10;48.30
15983;DHT22;14442;50.196;8.096;2023-03-23T11:33:22;23.10;48.30
15983;DHT22;14442;50.196;8.096;2023-03-23T11:35:52;23.20;48.60
15983;DHT22;14442;50.196;8.096;2023-03-23T11:38:21;23.30;48.30
15983;DHT22;14442;50.196;8.096;2023-03-23T11:40:51;23.30;48.20
15983;DHT22;14442;50.196;8.096;2023-03-23T11:43:20;23.30;48.30
15983;DHT22;14442;50.196;8.096;2023-03-23T11:45:53;23.30;48.20
15983;DHT22;14442;50.196;8.096;2023-03-23T11:48:28;23.30;48.20
15983;DHT22;14442;50.196;8.096;2023-03-23T11:51:01;23.30;48.00
15983;DHT22;14442;50.196;8.096;2023-03-23T11:53:37;23.30;48.10
15983;DHT22;14442;50.196;8.096;2023-03-23T11:56:22;23.30;48.00
15983;DHT22;14442;50.196;8.096;2023-03-23T11:58:50;23.40;48.30
15983;DHT22;14442;50.196;8.096;2023-03-23T12:01:28;23.40;48.30
15983;DHT22;14442;50.196;8.096;2023-03-23T12:04:03;23.40;48.30
15983;DHT22;14442;50.196;8.096;2023-03-23T12:06:41;23.40;48.10
15983;DHT22;14442;50.196;8.096;2023-03-23T12:09:21;23.40;48.00
15983;DHT22;14442;50.196;8.096;2023-03-23T12:11:58;23.40;47.90
15983;DHT22;14442;50.196;8.096;2023-03-23T12:14:33;23.40;48.40
15983;DHT22;14442;50.196;8.096;2023-03-23T12:17:11;23.30;48.10
15983;DHT22;14442;50.196;8.096;2023-03-23T12:19:45;23.40;48.30
15983;DHT22;14442;50.196;8.096;2023-03-23T12:22:24;23.40;48.00
15983;DHT22;14442;50.196;8.096;2023-03-23T12:25:13;23.40;47.90
15983;DHT22;14442;50.196;8.096;2023-03-23T12:27:47;23.40;48.00
15983;DHT22;14442;50.196;8.096;2023-03-23T12:30:27;23.40;48.10
15983;DHT22;14442;50.196;8.096;2023-03-23T12:33:03;23.40;48.40
15983;DHT22;14442;50.196;8.096;2023-03-23T12:35:41;23.40;48.50
15983;DHT22;14442;50.196;8.096;2023-03-23T12:38:20;23.40;48.30
15983;DHT22;14442;50.196;8.096;2023-03-23T12:40:55;23.50;48.20
15983;DHT22;14442;50.196;8.096;2023-03-23T12:43:31;23.60;49.50
15983;DHT22;14442;50.196;8.096;2023-03-23T12:46:14;23.70;50.80
15983;DHT22;14442;50.196;8.096;2023-03-23T12:48:45;23.70;50.40
15983;DHT22;14442;50.196;8.096;2023-03-23T12:51:20;23.70;50.20
15983;DHT22;14442;50.196;8.096;2023-03-23T12:53:53;23.70;50.00
15983;DHT22;14442;50.196;8.096;2023-03-23T12:56:28;23.70;50.40
15983;DHT22;14442;50.196;8.096;2023-03-23T12:59:04;23.70;50.20
15983;DHT22;14442;50.196;8.096;2023-03-23T13:01:37;23.70;49.60
15983;DHT22;14442;50.196;8.096;2023-03-23T13:04:07;23.70;49.60
15983;DHT22;14442;50.196;8.096;2023-03-23T13:06:37;23.70;49.50
15983;DHT22;14442;50.196;8.096;2023-03-23T13:09:09;23.50;49.20
15983;DHT22;14442;50.196;8.096;2023-03-23T13:11:38;23.40;49.20
15983;DHT22;14442;50.196;8.096;2023-03-23T13:14:16;23.40;48.90
15983;DHT22;14442;50.196;8.096;2023-03-23T13:16:53;23.30;48.60
15983;DHT22;14442;50.196;8.096;2023-03-23T13:19:28;23.40;48.30
15983;DHT22;14442;50.196;8.096;2023-03-23T13:22:02;23.50;48.10
15983;DHT22;14442;50.196;8.096;2023-03-23T13:24:34;23.60;48.00
15983;DHT22;14442;50.196;8.096;2023-03-23T13:27:04;23.60;48.20
15983;DHT22;14442;50.196;8.096;2023-03-23T13:29:33;23.60;48.20
15983;DHT22;14442;50.196;8.096;2023-03-23T13:32:11;23.60;47.80
15983;DHT22;14442;50.196;8.096;2023-03-23T13:34:39;23.70;47.80
15983;DHT22;14442;50.196;8.096;2023-03-23T13:37:10;23.60;47.70
15983;DHT22;14442;50.196;8.096;2023-03-23T13:39:48;23.60;47.80
15983;DHT22;14442;50.196;8.096;2023-03-23T13:42:20;23.60;47.60
15983;DHT22;14442;50.196;8.096;2023-03-23T13:45:05;23.60;47.80
15983;DHT22;14442;50.196;8.096;2023-03-23T13:47:37;23.50;48.00
15983;DHT22;14442;50.196;8.096;2023-03-23T13:50:25;23.40;47.90
15983;DHT22;14442;50.196;8.096;2023-03-23T13:52:58;23.40;47.80
15983;DHT22;14442;50.196;8.096;2023-03-23T13:55:40;23.30;47.60
15983;DHT22;14442;50.196;8.096;2023-03-23T13:58:21;23.30;47.50
15983;DHT22;14442;50.196;8.096;2023-03-23T14:01:01;23.30;47.50
15983;DHT22;14442;50.196;8.096;2023-03-23T14:03:35;23.30;47.40
15983;DHT22;14442;50.196;8.096;2023-03-23T14:06:05;23.30;47.40
15983;DHT22;14442;50.196;8.096;2023-03-23T14:08:40;23.20;47.30
15983;DHT22;14442;50.196;8.096;2023-03-23T14:11:14;23.20;47.30
15983;DHT22;14442;50.196;8.096;2023-03-23T14:13:45;23.20;47.20
15983;DHT22;14442;50.196;8.096;2023-03-23T14:16:18;23.20;47.20
15983;DHT22;14442;50.196;8.096;2023-03-23T14:18:53;23.10;47.10
15983;DHT22;14442;50.196;8.096;2023-03-23T14:21:32;23.10;47.10
15983;DHT22;14442;50.196;8.096;2023-03-23T14:24:01;23.10;47.10
15983;DHT22;14442;50.196;8.096;2023-03-23T14:26:28;23.10;47.10
15983;DHT22;14442;50.196;8.096;2023-03-23T14:28:55;23.10;47.10
15983;DHT22;14442;50.196;8.096;2023-03-23T14:31:25;23.10;47.10
15983;DHT22;14442;50.196;8.096;2023-03-23T14:33:54;23.10;47.00
15983;DHT22;14442;50.196;8.096;2023-03-23T14:36:22;23.10;47.00
15983;DHT22;14442;50.196;8.096;2023-03-23T14:38:56;23.10;47.00
15983;DHT22;14442;50.196;8.096;2023-03-23T14:41:28;23.00;46.90
15983;DHT22;14442;50.196;8.096;2023-03-23T14:43:55;23.00;46.90
15983;DHT22;14442;50.196;8.096;2023-03-23T14:46:24;23.00;46.90
15983;DHT22;14442;50.196;8.096;2023-03-23T14:48:51;23.00;46.90
15983;DHT22;14442;50.196;8.096;2023-03-23T14:51:19;23.00;46.90
15983;DHT22;14442;50.196;8.096;2023-03-23T14:53:46;23.00;46.90
15983;DHT22;14442;50.196;8.096;2023-03-23T14:56:18;23.00;46.90
15983;DHT22;14442;50.196;8.096;2023-03-23T14:58:46;23.00;46.80
15983;DHT22;14442;50.196;8.096;2023-03-23T15:01:16;23.00;46.80
15983;DHT22;14442;50.196;8.096;2023-03-23T15:03:49;22.90;46.70
15983;DHT22;14442;50.196;8.096;2023-03-23T15:06:19;23.00;46.80
15983;DHT22;14442;50.196;8.096;2023-03-23T15:08:49;23.00;46.70
15983;DHT22;14442;50.196;8.096;2023-03-23T15:11:27;23.00;46.70
15983;DHT22;14442;50.196;8.096;2023-03-23T15:13:56;22.90;46.60
15983;DHT22;14442;50.196;8.096;2023-03-23T15:16:27;22.90;46.60
15983;DHT22;14442;50.196;8.096;2023-03-23T15:18:58;22.90;46.60
15983;DHT22;14442;50.196;8.096;2023-03-23T15:21:28;22.90;46.60
15983;DHT22;14442;50.196;8.096;2023-03-23T15:23:56;22.90;46.60
15983;DHT22;14442;50.196;8.096;2023-03-23T15:26:27;22.90;46.50
15983;DHT22;14442;50.196;8.096;2023-03-23T15:29:18;22.90;46.50
15983;DHT22;14442;50.196;8.096;2023-03-23T15:31:47;22.90;46.50
15983;DHT22;14442;50.196;8.096;2023-03-23T15:34:20;22.90;46.50
15983;DHT22;14442;50.196;8.096;2023-03-23T15:36:58;22.90;46.60
15983;DHT22;14442;50.196;8.096;2023-03-23T15:39:26;22.80;46.50
15983;DHT22;14442;50.196;8.096;2023-03-23T15:41:54;22.80;46.50
15983;DHT22;14442;50.196;8.096;2023-03-23T15:44:24;22.80;46.50
15983;DHT22;14442;50.196;8.096;2023-03-23T15:46:53;22.80;46.50
15983;DHT22;14442;50.196;8.096;2023-03-23T15:49:29;22.80;46.50
15983;DHT22;14442;50.196;8.096;2023-03-23T15:51:56;22.80;46.50